Time;durP1;ratioP1;P1;durP2;ratioP2;P2;SDS_P1;SDS_P2;PMS_P1;PMS_P2;Temp;Humidity;BMP_temperature;BMP_pressure;BME280_temperature;BME280_humidity;BME280_pressure;Samples;Min_cycle;Max_cycle;Signal;HPM_P1;HPM_P2
2021/04/06 00:00:28;;;;;;;8.43;3.00;;;-1.00;99.90;;;;;;5061145;28;20463;-65
2021/04/06 00:02:57;;;;;;;9.82;2.65;;;-1.00;99.90;;;;;;5060977;28;20048;-63
2021/04/06 00:05:24;;;;;;;8.63;3.60;;;-1.00;99.90;;;;;;5061227;28;20139;-64
2021/04/06 00:07:51;;;;;;;8.48;3.33;;;-1.00;99.90;;;;;;5062342;28;20040;-64
2021/04/06 00:10:22;;;;;;;9.63;4.05;;;-1.00;99.90;;;;;;5061628;28;20454;-64
2021/04/06 00:12:52;;;;;;;8.20;3.28;;;-1.00;99.90;;;;;;5061875;28;20059;-65
2021/04/06 00:15:20;;;;;;;15.25;5.85;;;-1.00;99.90;;;;;;5042724;28;20049;-65
2021/04/06 00:17:47;;;;;;;10.15;3.70;;;-1.00;99.90;;;;;;5049689;28;20519;-64
2021/04/06 00:20:18;;;;;;;7.88;3.70;;;-0.90;99.90;;;;;;5047365;28;20041;-59
2021/04/06 00:22:46;;;;;;;10.32;3.78;;;-1.00;99.90;;;;;;5048260;28;20060;-64
2021/04/06 00:25:19;;;;;;;9.98;4.32;;;-0.90;99.90;;;;;;5041888;28;20095;-64
2021/04/06 00:27:47;;;;;;;6.38;4.05;;;-0.90;99.90;;;;;;5048020;28;20127;-60
2021/04/06 00:30:16;;;;;;;13.52;4.63;;;-0.90;99.90;;;;;;5047967;28;20051;-62
2021/04/06 00:32:43;;;;;;;8.90;4.88;;;-0.90;99.90;;;;;;5048204;28;20094;-64
2021/04/06 00:35:10;;;;;;;14.30;5.90;;;-0.90;99.90;;;;;;5048076;28;20645;-63
2021/04/06 00:37:45;;;;;;;13.52;5.22;;;-0.90;99.90;;;;;;5048759;28;20045;-65
2021/04/06 00:40:12;;;;;;;15.70;5.80;;;-0.90;99.90;;;;;;5047814;28;20041;-64
2021/04/06 00:42:40;;;;;;;11.48;4.22;;;-0.80;99.90;;;;;;5047296;28;20049;-65
2021/04/06 00:45:16;;;;;;;7.63;4.32;;;-0.80;99.90;;;;;;5048122;28;20068;-62
2021/04/06 00:47:43;;;;;;;6.85;4.03;;;-0.80;99.90;;;;;;5047422;28;20562;-64
2021/04/06 00:50:14;;;;;;;8.43;3.67;;;-0.70;99.90;;;;;;5047498;28;20033;-66
2021/04/06 00:52:44;;;;;;;13.00;4.53;;;-0.80;99.90;;;;;;5047480;28;20116;-65
2021/04/06 00:55:15;;;;;;;8.25;4.00;;;-0.80;99.90;;;;;;5047551;28;20045;-66
2021/04/06 00:57:43;;;;;;;8.55;3.67;;;-0.80;99.90;;;;;;5047581;28;20497;-63
2021/04/06 01:00:15;;;;;;;10.50;4.35;;;-0.80;99.90;;;;;;5046107;28;20844;-64
2021/04/06 01:02:57;;;;;;;9.18;4.40;;;-0.80;99.90;;;;;;5047003;28;20374;-64
2021/04/06 01:05:22;;;;;;;9.27;3.90;;;-0.80;99.90;;;;;;5048117;28;20041;-64
2021/04/06 01:07:48;;;;;;;10.57;3.92;;;-0.80;99.90;;;;;;5047817;28;20040;-64
2021/04/06 01:10:16;;;;;;;10.40;4.18;;;-0.80;99.90;;;;;;5047647;28;20079;-64
2021/04/06 01:12:44;;;;;;;10.50;3.90;;;-0.70;99.90;;;;;;5046857;28;20036;-64
2021/04/06 01:15:10;;;;;;;9.60;3.75;;;-0.70;99.90;;;;;;5048113;28;20041;-63
2021/04/06 01:17:38;;;;;;;10.43;3.90;;;-0.70;99.90;;;;;;5067025;28;20033;-64
2021/04/06 01:20:18;;;;;;;7.07;3.58;;;-0.70;99.90;;;;;;5065962;28;20041;-65
2021/04/06 01:22:45;;;;;;;9.30;3.38;;;-0.70;99.90;;;;;;5066298;28;20044;-64
2021/04/06 01:25:23;;;;;;;9.65;3.38;;;-0.70;99.90;;;;;;5066712;28;20052;-64
2021/04/06 01:27:55;;;;;;;9.38;3.08;;;-0.60;99.90;;;;;;5066048;28;20041;-65
2021/04/06 01:30:22;;;;;;;4.72;2.95;;;-0.60;99.90;;;;;;5064653;28;20040;-65
2021/04/06 01:32:50;;;;;;;11.77;3.00;;;-0.60;99.90;;;;;;5047101;28;20542;-65
2021/04/06 01:35:16;;;;;;;5.65;3.08;;;-0.60;99.90;;;;;;5046906;28;20102;-67
2021/04/06 01:37:41;;;;;;;6.15;2.60;;;-0.70;99.90;;;;;;5047276;28;20029;-63
2021/04/06 01:40:08;;;;;;;6.13;2.78;;;-0.60;99.90;;;;;;5046739;28;20044;-63
2021/04/06 01:42:37;;;;;;;9.90;2.55;;;-0.60;99.90;;;;;;5046759;28;20048;-66
2021/04/06 01:45:07;;;;;;;4.78;2.50;;;-0.70;99.90;;;;;;5047464;28;20049;-64
2021/04/06 01:47:33;;;;;;;5.80;2.80;;;-0.60;99.90;;;;;;5046851;28;20504;-65
2021/04/06 01:49:59;;;;;;;8.32;2.95;;;-0.70;99.90;;;;;;5045637;28;20060;-63
2021/04/06 01:52:26;;;;;;;9.18;2.85;;;-0.70;99.90;;;;;;5046480;28;20032;-64
2021/04/06 01:54:55;;;;;;;5.97;2.80;;;-0.80;99.90;;;;;;5046706;28;20178;-63
2021/04/06 01:57:27;;;;;;;4.50;2.67;;;-0.80;99.90;;;;;;5046492;28;20128;-63
2021/04/06 02:00:10;;;;;;;9.82;2.70;;;-0.70;99.90;;;;;;5047101;28;20496;-63
2021/04/06 02:02:38;;;;;;;7.80;2.10;;;-0.70;99.90;;;;;;5065541;28;20102;-64
2021/04/06 02:05:08;;;;;;;4.68;1.88;;;-0.80;99.90;;;;;;5066700;28;20047;-64
2021/04/06 02:07:37;;;;;;;9.18;2.17;;;-0.80;99.90;;;;;;5067265;28;20534;-64
2021/04/06 02:10:07;;;;;;;4.97;1.88;;;-0.80;99.90;;;;;;5066191;28;20047;-63
2021/04/06 02:12:43;;;;;;;8.27;2.55;;;-0.80;99.90;;;;;;5064535;28;20068;-63
2021/04/06 02:15:09;;;;;;;;;;;-0.80;99.90;;;;;;5067069;28;20044;-64
2021/04/06 02:17:49;;;;;;;10.02;2.40;;;-0.80;99.90;;;;;;5066705;28;19923;-63
2021/04/06 02:20:33;;;;;;;6.88;2.45;;;-0.80;99.90;;;;;;5065726;28;20241;-63
2021/04/06 02:23:01;;;;;;;6.07;2.08;;;-0.80;99.90;;;;;;5065849;28;20120;-62
2021/04/06 02:25:28;;;;;;;2.65;1.67;;;-0.70;99.90;;;;;;5065916;28;20037;-59
2021/04/06 02:27:54;;;;;;;4.35;2.20;;;-0.70;99.90;;;;;;5066008;28;20075;-63
2021/04/06 02:30:30;;;;;;;3.85;1.75;;;-0.70;99.90;;;;;;5064055;28;20044;-63
2021/04/06 02:33:02;;;;;;;11.95;1.88;;;-0.70;99.90;;;;;;5045969;28;20492;-65
2021/04/06 02:35:28;;;;;;;10.20;1.65;;;-0.80;99.90;;;;;;5045691;28;20044;-63
2021/04/06 02:37:54;;;;;;;3.97;1.77;;;-0.80;99.90;;;;;;5045970;28;20037;-61
2021/04/06 02:40:22;;;;;;;8.20;1.88;;;-0.90;99.90;;;;;;5044141;28;20049;-62
2021/04/06 02:42:49;;;;;;;8.15;2.50;;;-0.90;99.90;;;;;;5045385;28;20057;-63
2021/04/06 02:45:17;;;;;;;4.63;1.92;;;-0.90;99.90;;;;;;5045807;28;20132;-61
2021/04/06 02:47:45;;;;;;;11.85;2.08;;;-0.80;99.90;;;;;;5045909;28;20065;-61
2021/04/06 02:50:22;;;;;;;10.98;2.65;;;-0.80;99.90;;;;;;5045200;28;20060;-59
2021/04/06 02:52:49;;;;;;;4.97;1.45;;;-0.80;99.90;;;;;;5045785;28;20634;-60
2021/04/06 02:55:15;;;;;;;2.20;1.45;;;-0.70;99.90;;;;;;5045835;28;20029;-62
2021/04/06 02:57:49;;;;;;;7.80;3.03;;;-0.70;99.90;;;;;;5045943;28;20038;-62
2021/04/06 03:00:26;;;;;;;7.65;2.58;;;-0.70;99.90;;;;;;5046080;28;20093;-64
2021/04/06 03:02:53;;;;;;;8.77;1.73;;;-0.70;99.90;;;;;;5065343;28;20040;-64
2021/04/06 03:05:36;;;;;;;4.07;1.85;;;-0.70;99.90;;;;;;5063995;28;20439;-64
2021/04/06 03:08:02;;;;;;;4.47;1.60;;;-0.70;99.90;;;;;;5065711;28;20044;-64
2021/04/06 03:10:29;;;;;;;8.43;1.92;;;-0.80;99.90;;;;;;5065793;28;20033;-65
2021/04/06 03:12:55;;;;;;;7.80;1.55;;;-0.80;99.90;;;;;;5064616;28;20764;-65
2021/04/06 03:15:27;;;;;;;4.72;1.42;;;-0.70;99.90;;;;;;5062609;28;20114;-64
2021/04/06 03:17:56;;;;;;;6.32;1.50;;;-0.70;99.90;;;;;;5045316;28;20083;-65
2021/04/06 03:20:26;;;;;;;9.48;2.95;;;-0.70;99.90;;;;;;5045462;28;20102;-64
2021/04/06 03:22:54;;;;;;;6.65;1.52;;;-0.70;99.90;;;;;;5044249;28;20044;-64
2021/04/06 03:25:20;;;;;;;4.53;1.67;;;-0.70;99.90;;;;;;5045708;28;20037;-65
2021/04/06 03:27:48;;;;;;;7.22;1.80;;;-0.80;99.90;;;;;;5044731;28;20041;-65
2021/04/06 03:30:31;;;;;;;3.53;1.88;;;-0.70;99.90;;;;;;5046112;28;20072;-63
2021/04/06 03:33:12;;;;;;;7.13;2.30;;;-0.70;99.90;;;;;;5064985;28;20057;-64
2021/04/06 03:35:40;;;;;;;5.38;2.10;;;-0.80;99.90;;;;;;5065547;28;20033;-65
2021/04/06 03:38:07;;;;;;;10.05;2.30;;;-0.70;99.90;;;;;;5065215;28;20045;-62
2021/04/06 03:40:36;;;;;;;16.90;4.78;;;-0.80;99.90;;;;;;5065048;28;20056;-64
2021/04/06 03:43:21;;;;;;;7.25;2.55;;;-0.80;99.90;;;;;;5066089;28;20131;-65
2021/04/06 03:46:00;;;;;;;13.23;2.75;;;-0.80;99.90;;;;;;5064790;28;20040;-64
2021/04/06 03:48:27;;;;;;;7.75;2.38;;;-0.70;99.90;;;;;;5065868;28;20076;-63
2021/04/06 03:50:54;;;;;;;11.27;2.95;;;-0.70;99.90;;;;;;5068810;28;20355;-64
2021/04/06 03:53:21;;;;;;;8.27;2.45;;;-0.70;99.90;;;;;;5068883;28;20543;-63
2021/04/06 03:56:02;;;;;;;5.90;2.33;;;-0.70;99.90;;;;;;5069619;28;20045;-63
2021/04/06 03:58:34;;;;;;;7.40;2.22;;;-0.70;99.90;;;;;;5061385;28;20072;-64
2021/04/06 04:00:59;;;;;;;5.85;1.73;;;-0.70;99.90;;;;;;5068307;28;20120;-63
2021/04/06 04:03:25;;;;;;;4.40;2.20;;;-0.70;99.90;;;;;;5068766;28;20615;-62
2021/04/06 04:05:51;;;;;;;4.38;2.03;;;-0.80;99.90;;;;;;5068775;28;20040;-64
2021/04/06 04:08:16;;;;;;;4.78;1.88;;;-0.80;99.90;;;;;;5067681;28;20041;-63
2021/04/06 04:10:42;;;;;;;8.30;2.22;;;-0.80;99.90;;;;;;5083703;28;20028;-64
2021/04/06 04:13:08;;;;;;;4.80;2.30;;;-0.80;99.90;;;;;;5068975;28;20056;-64
2021/04/06 04:15:33;;;;;;;10.45;2.40;;;-0.80;99.90;;;;;;5064760;28;20781;-65
2021/04/06 04:18:01;;;;;;;11.32;2.35;;;-0.90;99.90;;;;;;5048675;28;20627;-63
2021/04/06 04:20:27;;;;;;;7.32;2.20;;;-0.90;99.90;;;;;;5049134;28;20033;-63
2021/04/06 04:22:53;;;;;;;11.63;2.28;;;-0.80;99.90;;;;;;5048290;23;20834;-71
2021/04/06 04:25:21;;;;;;;13.43;3.83;;;-0.90;99.90;;;;;;5021702;28;20107;-72
2021/04/06 04:27:47;;;;;;;12.95;2.70;;;-0.90;99.90;;;;;;5021243;28;20025;-70
2021/04/06 04:30:15;;;;;;;7.95;2.78;;;-0.80;99.90;;;;;;5029816;28;20045;-72
2021/04/06 04:32:41;;;;;;;10.65;3.10;;;-0.80;99.90;;;;;;5048577;28;20441;-73
2021/04/06 04:35:09;;;;;;;11.23;2.70;;;-0.80;99.90;;;;;;5056518;28;20060;-71
2021/04/06 04:37:35;;;;;;;12.63;2.70;;;-0.80;99.90;;;;;;5057918;28;20033;-73
2021/04/06 04:40:02;;;;;;;14.57;3.70;;;-0.80;99.90;;;;;;5058524;28;20072;-70
2021/04/06 04:42:29;;;;;;;12.73;3.00;;;-0.80;99.90;;;;;;5052310;28;20044;-70
2021/04/06 04:44:55;;;;;;;13.18;3.88;;;-0.80;99.90;;;;;;5064094;28;20041;-73
2021/04/06 04:47:21;;;;;;;9.68;3.05;;;-0.80;99.90;;;;;;5068290;28;20412;-72
2021/04/06 04:53:28;;;;;;;13.70;2.92;;;-0.80;99.90;;;;;;5067391;28;20047;-70
2021/04/06 04:55:54;;;;;;;11.55;3.05;;;-0.80;99.90;;;;;;5052265;28;20040;-72
2021/04/06 04:58:20;;;;;;;11.57;2.80;;;-0.80;99.90;;;;;;5064409;28;20423;-71
2021/04/06 05:00:45;;;;;;;10.43;2.70;;;-0.80;99.90;;;;;;5064764;28;20086;-71
2021/04/06 05:03:11;;;;;;;12.63;3.08;;;-0.70;99.90;;;;;;5066477;28;20131;-73
2021/04/06 05:05:37;;;;;;;16.52;2.63;;;-0.70;99.90;;;;;;5050171;28;20037;-73
2021/04/06 05:08:03;;;;;;;7.32;2.50;;;-0.70;99.90;;;;;;5049965;28;20041;-74
2021/04/06 05:10:37;;;;;;;12.10;2.50;;;-0.70;99.90;;;;;;5048828;28;20146;-71
2021/04/06 05:13:03;;;;;;;10.38;2.55;;;-0.70;99.90;;;;;;5046988;28;20531;-73
2021/04/06 05:15:30;;;;;;;10.57;2.15;;;-0.80;99.90;;;;;;5048023;28;20045;-74
2021/04/06 05:17:56;;;;;;;6.28;2.40;;;-0.70;99.90;;;;;;5048412;28;20037;-72
2021/04/06 05:20:22;;;;;;;5.47;1.80;;;-0.70;99.90;;;;;;5048111;28;20048;-73
2021/04/06 05:22:49;;;;;;;6.60;1.92;;;-0.60;99.90;;;;;;5047786;28;20036;-72
2021/04/06 05:25:15;;;;;;;7.85;2.00;;;-0.60;99.90;;;;;;5050047;28;20033;-72
2021/04/06 05:27:42;;;;;;;2.83;1.65;;;-0.60;99.90;;;;;;5067852;28;20500;-71
2021/04/06 05:30:09;;;;;;;4.40;2.42;;;-0.50;99.90;;;;;;5062935;28;20120;-72
2021/04/06 05:32:34;;;;;;;5.35;1.70;;;-0.40;99.90;;;;;;5058488;28;20044;-69
2021/04/06 05:35:00;;;;;;;5.05;1.50;;;-0.40;99.90;;;;;;5050875;28;20067;-73
2021/04/06 05:37:26;;;;;;;3.05;1.33;;;-0.40;99.90;;;;;;5050229;28;20051;-69
2021/04/06 05:39:52;;;;;;;7.63;1.58;;;-0.40;99.90;;;;;;5055584;28;20036;-70
2021/04/06 05:42:18;;;;;;;4.72;1.60;;;-0.50;99.90;;;;;;5047556;28;20044;-69
2021/04/06 05:44:45;;;;;;;4.50;2.30;;;-0.50;99.90;;;;;;5058085;28;20044;-71
2021/04/06 05:47:32;;;;;;;6.40;2.03;;;-0.50;99.90;;;;;;5060032;28;20049;-70
2021/04/06 05:49:58;;;;;;;11.98;2.92;;;-0.50;99.90;;;;;;5065175;28;20436;-72
2021/04/06 05:52:24;;;;;;;11.70;2.20;;;-0.60;99.90;;;;;;5068145;28;20048;-72
2021/04/06 05:54:50;;;;;;;16.52;2.50;;;-0.50;99.90;;;;;;5068239;28;20082;-69
2021/04/06 05:57:16;;;;;;;10.93;2.42;;;-0.50;99.90;;;;;;5067083;28;20127;-70
2021/04/06 05:59:42;;;;;;;8.18;2.70;;;-0.50;99.90;;;;;;5053974;28;20119;-69
2021/04/06 06:02:09;;;;;;;12.70;3.67;;;-0.60;99.90;;;;;;5045529;28;20083;-69
2021/04/06 06:04:36;;;;;;;11.75;2.17;;;-0.50;99.90;;;;;;5047438;28;20047;-71
2021/04/06 06:07:01;;;;;;;16.20;3.45;;;-0.50;99.90;;;;;;5056330;28;20087;-70
2021/04/06 06:09:30;;;;;;;17.40;6.22;;;-0.40;99.90;;;;;;5066760;28;20083;-69
2021/04/06 06:12:07;;;;;;;18.27;4.35;;;-0.50;99.90;;;;;;5061914;28;20104;-72
2021/04/06 06:14:35;;;;;;;10.82;2.55;;;-0.50;99.90;;;;;;5046222;28;20048;-70
2021/04/06 06:17:13;;;;;;;10.23;3.22;;;-0.40;99.90;;;;;;5045990;28;20110;-72
2021/04/06 06:19:39;;;;;;;19.35;4.47;;;-0.40;99.90;;;;;;5055340;28;20060;-74
2021/04/06 06:22:16;;;;;;;13.77;3.45;;;-0.40;99.90;;;;;;5058004;28;20040;-73
2021/04/06 06:24:45;;;;;;;17.45;5.15;;;-0.20;99.90;;;;;;5066641;28;20079;-71
2021/04/06 06:28:04;;;;;;;12.80;3.60;;;-0.10;99.90;;;;;;5055505;28;20052;-71
2021/04/06 06:30:37;;;;;;;19.00;5.32;;;0.10;99.90;;;;;;5058040;28;20059;-72
2021/04/06 06:33:24;;;;;;;15.77;4.53;;;0.10;99.90;;;;;;5069825;28;20044;-73
2021/04/06 06:35:59;;;;;;;16.35;3.67;;;0.30;99.90;;;;;;5067304;28;20119;-71
2021/04/06 06:38:27;;;;;;;38.25;4.57;;;0.50;99.90;;;;;;5067555;28;20072;-72
2021/04/06 06:41:19;;;;;;;22.40;4.38;;;0.50;99.90;;;;;;5067249;28;20036;-73
2021/04/06 06:43:56;;;;;;;32.83;14.52;;;0.90;99.90;;;;;;5066364;28;20114;-70
2021/04/06 06:46:29;;;;;;;21.17;4.07;;;1.10;99.90;;;;;;5066794;28;20040;-73
2021/04/06 06:49:04;;;;;;;27.17;4.47;;;0.80;99.90;;;;;;5066442;28;20040;-71
2021/04/06 06:51:36;;;;;;;16.17;3.25;;;0.80;99.90;;;;;;5066551;28;20550;-74
2021/04/06 06:54:06;;;;;;;34.25;3.42;;;0.80;99.90;;;;;;5066088;28;20047;-73
2021/04/06 06:56:36;;;;;;;31.98;8.93;;;0.80;99.90;;;;;;5066090;28;20044;-73
2021/04/06 06:59:04;;;;;;;14.13;4.60;;;0.60;99.90;;;;;;5058101;28;20037;-72
2021/04/06 07:01:33;;;;;;;23.33;4.25;;;0.60;99.90;;;;;;5065458;28;20050;-72
2021/04/06 07:04:13;;;;;;;15.35;3.60;;;0.60;99.90;;;;;;5065951;28;20047;-71
2021/04/06 07:06:46;;;;;;;23.52;4.75;;;0.60;99.90;;;;;;5060210;28;20041;-72
2021/04/06 07:09:28;;;;;;;18.75;4.13;;;0.50;99.90;;;;;;5045827;28;20545;-73
2021/04/06 07:11:59;;;;;;;27.00;7.22;;;0.50;99.90;;;;;;5050476;28;20053;-74
2021/04/06 07:14:27;;;;;;;21.92;6.22;;;0.60;99.90;;;;;;5065871;28;20127;-72
2021/04/06 07:16:54;;;;;;;19.17;3.88;;;1.20;99.90;;;;;;5057960;28;20103;-74
2021/04/06 07:19:21;;;;;;;24.65;4.85;;;1.00;99.90;;;;;;5065771;28;20041;-71
2021/04/06 07:21:48;;;;;;;30.60;5.78;;;0.80;99.90;;;;;;5065556;28;20039;-71
2021/04/06 07:24:20;;;;;;;32.55;4.68;;;0.40;99.90;;;;;;5066338;28;20090;-70
2021/04/06 07:26:46;;;;;;;21.02;4.35;;;0.30;99.90;;;;;;5066522;28;20052;-72
2021/04/06 07:29:13;;;;;;;18.30;4.78;;;0.20;99.90;;;;;;5059669;28;20040;-71
2021/04/06 07:31:39;;;;;;;37.53;13.55;;;0.20;99.90;;;;;;5068579;28;20035;-71
2021/04/06 07:34:09;;;;;;;16.65;4.05;;;0.10;99.90;;;;;;5067110;28;20040;-70
2021/04/06 07:36:35;;;;;;;20.45;4.90;;;0.20;99.90;;;;;;5064536;28;20048;-71
2021/04/06 07:39:09;;;;;;;14.00;4.20;;;0.30;99.90;;;;;;5051764;28;20560;-73
2021/04/06 07:41:42;;;;;;;25.65;5.30;;;0.20;99.90;;;;;;5065581;28;20115;-72
2021/04/06 07:44:55;;;;;;;30.25;7.60;;;0.50;99.90;;;;;;5055627;28;20032;-70
2021/04/06 07:47:40;;;;;;;28.42;6.90;;;1.30;99.90;;;;;;5062176;28;20179;-71
2021/04/06 07:50:13;;;;;;;14.10;4.50;;;1.70;99.90;;;;;;5064217;28;20074;-78
2021/04/06 07:52:40;;;;;;;28.95;5.25;;;1.30;99.90;;;;;;5053853;28;20048;-70
2021/04/06 07:55:07;;;;;;;21.73;4.80;;;0.90;99.90;;;;;;5065577;28;20087;-73
2021/04/06 07:57:48;;;;;;;26.95;4.85;;;0.80;99.90;;;;;;5069675;28;20072;-72
2021/04/06 08:00:48;;;;;;;16.60;4.72;;;0.80;99.90;;;;;;5058645;28;20052;-71
2021/04/06 08:03:49;;;;;;;16.58;4.20;;;0.80;99.90;;;;;;5066395;28;20041;-72
2021/04/06 08:06:23;;;;;;;15.50;3.72;;;0.80;99.90;;;;;;5066842;28;20059;-70
2021/04/06 08:08:49;;;;;;;19.98;4.03;;;0.80;99.90;;;;;;5069752;28;20143;-74
2021/04/06 08:11:16;;;;;;;15.85;3.88;;;0.70;99.90;;;;;;5067223;28;20032;-73
2021/04/06 08:13:43;;;;;;;19.80;3.58;;;0.80;99.90;;;;;;5059086;28;20044;-71
2021/04/06 08:16:18;;;;;;;17.27;3.47;;;0.80;99.90;;;;;;5063296;28;20119;-71
2021/04/06 08:18:54;;;;;;;19.08;3.88;;;0.90;99.90;;;;;;5068595;28;20044;-73
2021/04/06 08:21:25;;;;;;;16.23;3.38;;;0.90;99.90;;;;;;5067954;28;20116;-70
2021/04/06 08:23:52;;;;;;;15.25;3.97;;;1.10;99.90;;;;;;5059538;28;20127;-73
2021/04/06 08:26:34;;;;;;;18.70;3.35;;;1.20;99.90;;;;;;5058267;28;20409;-72
2021/04/06 08:29:22;;;;;;;19.10;4.88;;;1.10;99.90;;;;;;5060278;28;20842;-73
2021/04/06 08:32:13;;;;;;;17.88;4.18;;;1.10;99.90;;;;;;5067665;28;20119;-73
2021/04/06 08:34:55;;;;;;;19.25;3.85;;;1.30;99.90;;;;;;5060483;28;20068;-75
2021/04/06 08:37:38;;;;;;;14.43;3.90;;;1.50;99.90;;;;;;5062563;28;20045;-72
2021/04/06 08:40:09;;;;;;;19.85;3.67;;;1.50;99.90;;;;;;5060049;28;20048;-72
2021/04/06 08:42:37;;;;;;;13.32;3.80;;;1.30;99.90;;;;;;5064684;28;20736;-73
2021/04/06 08:45:05;;;;;;;14.57;4.07;;;1.50;99.90;;;;;;5054320;28;20079;-73
2021/04/06 08:47:46;;;;;;;13.32;3.72;;;1.80;99.90;;;;;;5060345;28;20061;-72
2021/04/06 08:50:19;;;;;;;14.98;3.35;;;1.90;99.90;;;;;;5068425;28;20039;-75
2021/04/06 08:52:47;;;;;;;13.05;3.05;;;1.60;99.90;;;;;;5068614;28;20098;-73
2021/04/06 08:55:15;;;;;;;16.20;4.75;;;1.40;99.90;;;;;;5062294;28;20102;-74
2021/04/06 08:57:42;;;;;;;39.03;17.63;;;1.70;99.90;;;;;;5059690;28;20041;-72
2021/04/06 09:00:13;;;;;;;16.98;4.10;;;1.50;99.90;;;;;;5056497;28;20079;-72
2021/04/06 09:02:40;;;;;;;16.10;3.85;;;1.50;99.90;;;;;;5047195;28;20052;-71
2021/04/06 09:05:07;;;;;;;10.70;3.40;;;1.70;99.90;;;;;;5048144;28;20128;-73
2021/04/06 09:07:37;;;;;;;18.95;3.72;;;1.90;99.90;;;;;;5048124;28;20063;-72
2021/04/06 09:10:10;;;;;;;15.55;3.25;;;1.80;99.90;;;;;;5048495;28;20098;-73
2021/04/06 09:12:45;;;;;;;15.20;4.00;;;1.70;99.90;;;;;;5047986;28;20567;-72
2021/04/06 09:15:15;;;;;;;12.35;4.05;;;1.60;99.90;;;;;;5054483;28;20041;-71
2021/04/06 09:17:41;;;;;;;16.73;4.18;;;1.60;99.90;;;;;;5069799;28;20040;-73
2021/04/06 09:20:14;;;;;;;17.98;3.78;;;1.40;99.90;;;;;;5070599;28;20090;-74
2021/04/06 09:22:41;;;;;;;19.02;3.65;;;1.40;99.90;;;;;;5063287;28;20047;-70
2021/04/06 09:25:21;;;;;;;17.08;3.47;;;1.80;99.90;;;;;;5063677;28;20398;-70
2021/04/06 09:27:51;;;;;;;9.60;3.05;;;2.40;99.90;;;;;;5061195;28;20033;-71
2021/04/06 09:30:18;;;;;;;11.93;3.05;;;3.10;99.90;;;;;;5059655;28;20040;-71
2021/04/06 09:32:44;;;;;;;14.48;2.85;;;2.80;98.80;;;;;;5067956;28;20059;-70
2021/04/06 09:35:16;;;;;;;9.90;2.67;;;2.50;99.60;;;;;;5067720;28;20094;-70
2021/04/06 09:37:42;;;;;;;14.60;3.40;;;2.40;99.00;;;;;;5061568;28;20048;-70
2021/04/06 09:40:09;;;;;;;9.05;2.80;;;2.50;99.50;;;;;;5059328;28;20068;-70
2021/04/06 09:42:36;;;;;;;15.82;2.90;;;2.10;99.00;;;;;;5067254;28;20047;-71
2021/04/06 09:45:03;;;;;;;13.77;3.00;;;2.00;99.90;;;;;;5067519;28;20041;-70
2021/04/06 09:47:34;;;;;;;8.80;3.22;;;2.10;99.70;;;;;;5066511;28;20032;-72
2021/04/06 09:50:03;;;;;;;10.43;2.83;;;2.20;99.90;;;;;;5067444;28;20505;-71
2021/04/06 09:52:29;;;;;;;11.23;3.00;;;2.20;99.50;;;;;;5066852;28;20052;-71
2021/04/06 09:55:00;;;;;;;11.65;3.22;;;2.20;99.40;;;;;;5067152;28;20090;-72
2021/04/06 09:57:36;;;;;;;18.52;3.78;;;2.30;99.60;;;;;;5067448;28;20066;-74
2021/04/06 10:00:09;;;;;;;14.10;4.00;;;2.20;99.60;;;;;;5050887;28;20044;-73
2021/04/06 10:02:36;;;;;;;19.15;4.25;;;2.00;99.50;;;;;;5066627;28;20090;-71
2021/04/06 10:05:03;;;;;;;15.10;4.85;;;2.10;99.90;;;;;;5067358;28;20041;-73
2021/04/06 10:07:33;;;;;;;21.45;8.00;;;2.10;99.90;;;;;;5068316;28;20068;-74
2021/04/06 10:10:00;;;;;;;10.77;3.55;;;2.40;99.90;;;;;;5068279;28;20040;-72
2021/04/06 10:12:28;;;;;;;8.82;2.72;;;2.70;99.90;;;;;;5058331;28;20131;-74
2021/04/06 10:14:55;;;;;;;19.38;6.82;;;3.20;98.80;;;;;;5049883;28;20048;-70
2021/04/06 10:17:34;;;;;;;18.55;6.40;;;3.70;98.50;;;;;;5065140;28;20041;-72
2021/04/06 10:20:07;;;;;;;10.07;3.13;;;3.30;97.10;;;;;;5066538;28;20070;-71
2021/04/06 10:22:57;;;;;;;9.25;2.95;;;2.70;97.50;;;;;;5068725;28;20140;-74
2021/04/06 10:25:27;;;;;;;14.40;3.28;;;2.80;99.30;;;;;;5066773;28;20084;-72
2021/04/06 10:27:56;;;;;;;10.00;2.53;;;3.60;98.90;;;;;;5072734;28;20711;-70
2021/04/06 10:31:01;;;;;;;9.77;2.75;;;3.90;97.90;;;;;;5056473;28;20044;-71
2021/04/06 10:33:30;;;;;;;11.75;3.10;;;3.70;96.90;;;;;;5035136;28;20055;-71
2021/04/06 10:36:02;;;;;;;16.50;3.95;;;3.40;96.50;;;;;;5054960;28;20366;-71
2021/04/06 10:38:35;;;;;;;23.15;3.63;;;2.80;97.60;;;;;;5047293;28;20127;-73
2021/04/06 10:41:12;;;;;;;14.52;3.85;;;1.70;99.90;;;;;;5061275;28;20032;-71
2021/04/06 10:43:46;;;;;;;8.38;3.00;;;1.40;99.90;;;;;;5060223;28;20710;-71
2021/04/06 10:46:15;;;;;;;13.52;3.47;;;1.40;99.90;;;;;;5064393;28;20048;-72
2021/04/06 10:48:47;;;;;;;9.82;3.80;;;1.60;99.90;;;;;;5065843;28;20046;-70
2021/04/06 10:51:35;;;;;;;6.53;2.40;;;1.80;99.90;;;;;;5064532;28;20037;-73
2021/04/06 10:54:15;;;;;;;21.23;9.30;;;1.90;99.90;;;;;;5046320;28;20053;-73
2021/04/06 10:56:52;;;;;;;3.90;2.53;;;2.50;99.90;;;;;;5057236;28;20039;-73
2021/04/06 10:59:30;;;;;;;5.45;1.80;;;3.00;99.90;;;;;;5057693;28;20094;-74
2021/04/06 11:01:57;;;;;;;3.33;1.80;;;3.30;99.90;;;;;;5064935;28;20068;-74
2021/04/06 11:04:26;;;;;;;4.55;2.10;;;3.40;99.90;;;;;;5066092;28;20045;-72
2021/04/06 11:06:59;;;;;;;7.25;3.13;;;3.50;99.90;;;;;;5066568;28;20045;-72
2021/04/06 11:09:41;;;;;;;5.85;3.47;;;3.40;99.90;;;;;;5065541;28;20041;-72
2021/04/06 11:12:09;;;;;;;7.20;4.30;;;3.70;99.80;;;;;;5066171;28;20597;-73
2021/04/06 11:14:36;;;;;;;25.48;13.05;;;4.20;99.20;;;;;;5064764;28;20056;-72
2021/04/06 11:17:06;;;;;;;6.47;3.63;;;3.90;98.20;;;;;;5062054;28;20036;-71
2021/04/06 11:19:40;;;;;;;8.55;3.55;;;3.60;97.80;;;;;;5059210;28;20032;-73
2021/04/06 11:22:11;;;;;;;7.78;3.42;;;3.70;98.80;;;;;;5065787;28;20106;-72
2021/04/06 11:24:38;;;;;;;12.13;3.72;;;3.40;99.10;;;;;;5065958;28;20039;-73
2021/04/06 11:27:05;;;;;;;9.52;3.60;;;3.50;98.50;;;;;;5067365;28;20109;-72
2021/04/06 11:29:34;;;;;;;14.43;4.57;;;2.90;97.80;;;;;;5065389;28;20106;-70
2021/04/06 11:32:21;;;;;;;9.50;4.03;;;3.00;99.10;;;;;;5064409;28;20119;-72
2021/04/06 11:34:48;;;;;;;13.98;3.92;;;3.20;99.80;;;;;;5065308;28;20110;-71
2021/04/06 11:37:15;;;;;;;11.13;4.28;;;3.00;99.90;;;;;;5058198;28;20107;-70
2021/04/06 11:39:47;;;;;;;10.70;3.85;;;2.70;99.90;;;;;;5068438;28;20500;-72
2021/04/06 11:42:15;;;;;;;11.88;3.47;;;2.80;99.90;;;;;;5065658;28;20485;-71
2021/04/06 11:44:41;;;;;;;7.95;3.03;;;2.90;99.90;;;;;;5066120;28;20039;-73
2021/04/06 11:47:08;;;;;;;12.65;3.25;;;3.00;99.90;;;;;;5065015;28;20562;-73
2021/04/06 11:49:34;;;;;;;5.57;2.78;;;3.10;99.90;;;;;;5065007;28;20040;-70
2021/04/06 11:52:01;;;;;;;7.07;3.10;;;3.00;99.40;;;;;;5045774;28;20512;-74
2021/04/06 11:54:27;;;;;;;6.72;2.88;;;3.30;99.80;;;;;;5045804;28;20037;-73
2021/04/06 11:56:52;;;;;;;5.10;2.10;;;3.50;98.70;;;;;;5057612;28;20047;-73
2021/04/06 11:59:19;;;;;;;6.68;2.38;;;3.70;98.20;;;;;;5065385;28;20041;-73
2021/04/06 12:01:46;;;;;;;8.63;2.60;;;4.00;97.80;;;;;;5064701;28;20040;-72
2021/04/06 12:04:14;;;;;;;5.32;2.00;;;3.80;96.90;;;;;;5065790;28;20045;-73
2021/04/06 12:06:41;;;;;;;9.93;2.25;;;4.00;97.50;;;;;;5066002;28;20055;-73
2021/04/06 12:09:09;;;;;;;5.68;2.28;;;4.00;96.50;;;;;;5064362;28;20029;-73
2021/04/06 12:11:36;;;;;;;8.10;2.03;;;4.60;96.00;;;;;;5066634;28;20397;-72
2021/04/06 12:14:03;;;;;;;7.88;2.60;;;4.40;94.00;;;;;;5059494;28;20045;-71
2021/04/06 12:16:30;;;;;;;7.45;2.15;;;4.30;94.60;;;;;;5068849;28;20067;-71
2021/04/06 12:18:57;;;;;;;7.13;2.03;;;4.00;95.30;;;;;;5063116;28;20040;-73
2021/04/06 12:21:23;;;;;;;6.78;2.35;;;3.50;96.60;;;;;;5063592;28;20074;-69
2021/04/06 12:23:49;;;;;;;3.65;2.38;;;3.20;97.80;;;;;;5061069;28;20078;-73
2021/04/06 12:26:15;;;;;;;7.38;2.20;;;2.90;97.50;;;;;;5065898;28;20040;-72
2021/04/06 12:28:41;;;;;;;7.50;2.53;;;2.60;99.10;;;;;;5063017;28;20144;-71
2021/04/06 12:31:07;;;;;;;8.90;2.92;;;2.20;99.90;;;;;;5049907;28;20795;-72
2021/04/06 12:33:33;;;;;;;25.17;13.02;;;1.60;99.90;;;;;;5049275;28;20036;-71
2021/04/06 12:36:00;;;;;;;4.15;1.80;;;1.40;99.90;;;;;;5049614;28;20549;-71
2021/04/06 12:38:26;;;;;;;6.22;1.80;;;1.00;99.90;;;;;;5049573;28;20045;-73
2021/04/06 12:40:52;;;;;;;4.65;1.50;;;0.90;99.90;;;;;;5049623;28;20473;-73
2021/04/06 12:43:18;;;;;;;4.57;2.10;;;0.80;99.90;;;;;;5063420;28;20037;-71
2021/04/06 12:45:44;;;;;;;12.13;1.42;;;0.80;99.90;;;;;;5069415;28;20040;-71
2021/04/06 12:48:11;;;;;;;2.67;1.08;;;0.60;99.90;;;;;;5069988;28;20170;-71
2021/04/06 12:50:36;;;;;;;1.67;0.95;;;0.70;99.90;;;;;;5069953;28;20565;-71
2021/04/06 12:53:02;;;;;;;3.65;1.00;;;0.90;99.90;;;;;;5070369;28;20170;-72
2021/04/06 12:55:28;;;;;;;5.85;2.80;;;1.10;99.90;;;;;;5067766;28;20127;-73
2021/04/06 12:57:55;;;;;;;2.60;1.17;;;1.30;99.90;;;;;;5056368;28;20091;-73
2021/04/06 13:00:21;;;;;;;2.65;1.27;;;1.60;99.90;;;;;;5060683;28;20040;-73
2021/04/06 13:02:48;;;;;;;4.80;2.75;;;1.50;99.90;;;;;;5068402;28;20040;-73
2021/04/06 13:05:14;;;;;;;8.73;5.00;;;1.70;99.90;;;;;;5070207;28;20048;-72
2021/04/06 13:07:40;;;;;;;5.70;4.15;;;2.20;99.90;;;;;;5069068;28;20043;-72